sensor_id;sensor_type;location;lat;lon;timestamp;P1;durP1;ratioP1;P2;durP2;ratioP2
32200;SDS011;18701;45.588;5.288;2024-02-04T00:01:40;24.65;;;13.27;;
32200;SDS011;18701;45.588;5.288;2024-02-04T00:04:05;25.02;;;12.45;;
32200;SDS011;18701;45.588;5.288;2024-02-04T00:06:31;22.83;;;12.77;;
32200;SDS011;18701;45.588;5.288;2024-02-04T00:08:57;22.13;;;11.73;;
32200;SDS011;18701;45.588;5.288;2024-02-04T00:11:22;20.42;;;11.45;;
32200;SDS011;18701;45.588;5.288;2024-02-04T00:13:48;22.73;;;12.48;;
32200;SDS011;18701;45.588;5.288;2024-02-04T00:16:14;20.02;;;11.48;;
32200;SDS011;18701;45.588;5.288;2024-02-04T00:18:39;20.42;;;12.07;;
32200;SDS011;18701;45.588;5.288;2024-02-04T00:21:05;23.45;;;13.15;;
32200;SDS011;18701;45.588;5.288;2024-02-04T00:23:31;23.20;;;12.88;;
32200;SDS011;18701;45.588;5.288;2024-02-04T00:25:56;22.05;;;12.32;;
32200;SDS011;18701;45.588;5.288;2024-02-04T00:28:22;24.35;;;12.98;;
32200;SDS011;18701;45.588;5.288;2024-02-04T00:30:47;22.15;;;11.70;;
32200;SDS011;18701;45.588;5.288;2024-02-04T00:33:20;24.23;;;12.63;;
32200;SDS011;18701;45.588;5.288;2024-02-04T00:35:45;22.30;;;12.13;;
32200;SDS011;18701;45.588;5.288;2024-02-04T00:38:11;18.63;;;11.90;;
32200;SDS011;18701;45.588;5.288;2024-02-04T00:40:37;21.92;;;12.55;;
32200;SDS011;18701;45.588;5.288;2024-02-04T00:43:03;23.50;;;12.32;;
32200;SDS011;18701;45.588;5.288;2024-02-04T00:45:28;23.70;;;12.73;;
32200;SDS011;18701;45.588;5.288;2024-02-04T00:47:54;23.92;;;12.45;;
32200;SDS011;18701;45.588;5.288;2024-02-04T00:50:20;26.20;;;13.23;;
32200;SDS011;18701;45.588;5.288;2024-02-04T00:52:45;29.90;;;12.30;;
32200;SDS011;18701;45.588;5.288;2024-02-04T00:55:11;27.92;;;13.48;;
32200;SDS011;18701;45.588;5.288;2024-02-04T00:57:37;24.52;;;12.07;;
32200;SDS011;18701;45.588;5.288;2024-02-04T01:00:02;28.10;;;12.68;;
32200;SDS011;18701;45.588;5.288;2024-02-04T01:02:29;30.17;;;13.43;;
32200;SDS011;18701;45.588;5.288;2024-02-04T01:04:55;23.17;;;13.02;;
32200;SDS011;18701;45.588;5.288;2024-02-04T01:07:21;24.05;;;13.07;;
32200;SDS011;18701;45.588;5.288;2024-02-04T01:09:46;19.20;;;10.68;;
32200;SDS011;18701;45.588;5.288;2024-02-04T01:12:14;16.60;;;10.05;;
32200;SDS011;18701;45.588;5.288;2024-02-04T01:14:40;17.02;;;10.02;;
32200;SDS011;18701;45.588;5.288;2024-02-04T01:17:05;15.70;;;9.27;;
32200;SDS011;18701;45.588;5.288;2024-02-04T01:19:32;16.63;;;9.55;;
32200;SDS011;18701;45.588;5.288;2024-02-04T01:21:58;15.27;;;8.68;;
32200;SDS011;18701;45.588;5.288;2024-02-04T01:24:23;17.98;;;8.98;;
32200;SDS011;18701;45.588;5.288;2024-02-04T01:26:50;18.10;;;9.23;;
32200;SDS011;18701;45.588;5.288;2024-02-04T01:29:16;15.60;;;8.45;;
32200;SDS011;18701;45.588;5.288;2024-02-04T01:31:42;15.32;;;8.98;;
32200;SDS011;18701;45.588;5.288;2024-02-04T01:34:07;16.85;;;8.45;;
32200;SDS011;18701;45.588;5.288;2024-02-04T01:36:33;13.95;;;8.30;;
32200;SDS011;18701;45.588;5.288;2024-02-04T01:38:58;12.85;;;8.48;;
32200;SDS011;18701;45.588;5.288;2024-02-04T01:41:24;14.60;;;8.93;;
32200;SDS011;18701;45.588;5.288;2024-02-04T01:43:52;13.02;;;8.27;;
32200;SDS011;18701;45.588;5.288;2024-02-04T01:46:18;18.00;;;8.30;;
32200;SDS011;18701;45.588;5.288;2024-02-04T01:48:44;14.48;;;8.02;;
32200;SDS011;18701;45.588;5.288;2024-02-04T01:51:10;19.38;;;8.18;;
32200;SDS011;18701;45.588;5.288;2024-02-04T01:53:36;13.18;;;7.10;;
32200;SDS011;18701;45.588;5.288;2024-02-04T01:56:05;13.52;;;7.57;;
32200;SDS011;18701;45.588;5.288;2024-02-04T01:58:31;11.55;;;6.72;;
32200;SDS011;18701;45.588;5.288;2024-02-04T02:00:58;11.68;;;7.07;;
32200;SDS011;18701;45.588;5.288;2024-02-04T02:03:24;14.65;;;7.28;;
32200;SDS011;18701;45.588;5.288;2024-02-04T02:05:51;14.30;;;7.88;;
32200;SDS011;18701;45.588;5.288;2024-02-04T02:08:17;12.57;;;7.57;;
32200;SDS011;18701;45.588;5.288;2024-02-04T02:10:43;13.65;;;7.32;;
32200;SDS011;18701;45.588;5.288;2024-02-04T02:13:20;14.10;;;7.55;;
32200;SDS011;18701;45.588;5.288;2024-02-04T02:15:58;14.75;;;6.95;;
32200;SDS011;18701;45.588;5.288;2024-02-04T02:18:33;11.30;;;6.85;;
32200;SDS011;18701;45.588;5.288;2024-02-04T02:24:14;10.63;;;6.18;;
32200;SDS011;18701;45.588;5.288;2024-02-04T02:26:51;8.90;;;5.88;;
32200;SDS011;18701;45.588;5.288;2024-02-04T02:29:18;11.52;;;6.43;;
32200;SDS011;18701;45.588;5.288;2024-02-04T02:31:43;10.13;;;6.45;;
32200;SDS011;18701;45.588;5.288;2024-02-04T02:34:10;9.48;;;5.78;;
32200;SDS011;18701;45.588;5.288;2024-02-04T02:36:46;9.52;;;5.50;;
32200;SDS011;18701;45.588;5.288;2024-02-04T02:39:21;10.38;;;5.22;;
32200;SDS011;18701;45.588;5.288;2024-02-04T02:41:50;8.48;;;4.75;;
32200;SDS011;18701;45.588;5.288;2024-02-04T02:44:21;11.75;;;5.95;;
32200;SDS011;18701;45.588;5.288;2024-02-04T02:46:48;8.45;;;5.00;;
32200;SDS011;18701;45.588;5.288;2024-02-04T02:49:15;9.70;;;5.43;;
32200;SDS011;18701;45.588;5.288;2024-02-04T02:51:40;8.57;;;5.22;;
32200;SDS011;18701;45.588;5.288;2024-02-04T02:54:06;8.80;;;5.28;;
32200;SDS011;18701;45.588;5.288;2024-02-04T02:56:31;7.93;;;4.65;;
32200;SDS011;18701;45.588;5.288;2024-02-04T02:58:57;7.88;;;5.20;;
32200;SDS011;18701;45.588;5.288;2024-02-04T03:01:23;9.13;;;5.10;;
32200;SDS011;18701;45.588;5.288;2024-02-04T03:03:49;13.48;;;5.40;;
32200;SDS011;18701;45.588;5.288;2024-02-04T03:06:14;7.95;;;4.80;;
32200;SDS011;18701;45.588;5.288;2024-02-04T03:08:40;8.77;;;4.78;;
32200;SDS011;18701;45.588;5.288;2024-02-04T03:11:05;7.50;;;4.32;;
32200;SDS011;18701;45.588;5.288;2024-02-04T03:13:31;7.97;;;5.28;;
32200;SDS011;18701;45.588;5.288;2024-02-04T03:15:57;7.57;;;4.35;;
32200;SDS011;18701;45.588;5.288;2024-02-04T03:18:22;7.57;;;4.60;;
32200;SDS011;18701;45.588;5.288;2024-02-04T03:20:48;8.55;;;4.75;;
32200;SDS011;18701;45.588;5.288;2024-02-04T03:23:13;12.02;;;6.25;;
32200;SDS011;18701;45.588;5.288;2024-02-04T03:25:39;14.80;;;6.03;;
32200;SDS011;18701;45.588;5.288;2024-02-04T03:28:05;10.60;;;5.07;;
32200;SDS011;18701;45.588;5.288;2024-02-04T03:30:30;8.05;;;4.55;;
32200;SDS011;18701;45.588;5.288;2024-02-04T03:32:56;6.13;;;3.47;;
32200;SDS011;18701;45.588;5.288;2024-02-04T03:35:22;11.00;;;4.95;;
32200;SDS011;18701;45.588;5.288;2024-02-04T03:37:47;10.75;;;5.65;;
32200;SDS011;18701;45.588;5.288;2024-02-04T03:40:13;9.25;;;4.70;;
32200;SDS011;18701;45.588;5.288;2024-02-04T03:42:39;6.60;;;3.63;;
32200;SDS011;18701;45.588;5.288;2024-02-04T03:45:05;8.18;;;4.32;;
32200;SDS011;18701;45.588;5.288;2024-02-04T03:47:31;10.88;;;4.95;;
32200;SDS011;18701;45.588;5.288;2024-02-04T03:49:57;10.05;;;4.40;;
32200;SDS011;18701;45.588;5.288;2024-02-04T03:52:22;8.18;;;4.53;;
32200;SDS011;18701;45.588;5.288;2024-02-04T03:54:48;12.10;;;4.72;;
32200;SDS011;18701;45.588;5.288;2024-02-04T03:57:14;7.45;;;4.22;;
32200;SDS011;18701;45.588;5.288;2024-02-04T03:59:39;8.02;;;5.03;;
32200;SDS011;18701;45.588;5.288;2024-02-04T04:02:05;9.02;;;4.50;;
32200;SDS011;18701;45.588;5.288;2024-02-04T04:04:30;7.55;;;4.18;;
32200;SDS011;18701;45.588;5.288;2024-02-04T04:06:56;10.07;;;4.05;;
32200;SDS011;18701;45.588;5.288;2024-02-04T04:09:22;8.07;;;4.13;;
32200;SDS011;18701;45.588;5.288;2024-02-04T04:11:48;8.10;;;4.93;;
32200;SDS011;18701;45.588;5.288;2024-02-04T04:14:13;7.30;;;4.55;;
32200;SDS011;18701;45.588;5.288;2024-02-04T04:16:39;8.98;;;4.45;;
32200;SDS011;18701;45.588;5.288;2024-02-04T04:19:04;7.90;;;3.70;;
32200;SDS011;18701;45.588;5.288;2024-02-04T04:21:30;8.68;;;4.20;;
32200;SDS011;18701;45.588;5.288;2024-02-04T04:23:56;7.85;;;4.15;;
32200;SDS011;18701;45.588;5.288;2024-02-04T04:26:21;7.50;;;4.32;;
32200;SDS011;18701;45.588;5.288;2024-02-04T04:28:47;12.95;;;4.70;;
32200;SDS011;18701;45.588;5.288;2024-02-04T04:31:12;8.95;;;4.32;;
32200;SDS011;18701;45.588;5.288;2024-02-04T04:33:38;8.65;;;4.85;;
32200;SDS011;18701;45.588;5.288;2024-02-04T04:36:04;6.28;;;3.90;;
32200;SDS011;18701;45.588;5.288;2024-02-04T04:38:29;6.30;;;3.67;;
32200;SDS011;18701;45.588;5.288;2024-02-04T04:40:55;7.07;;;3.95;;
32200;SDS011;18701;45.588;5.288;2024-02-04T04:43:21;8.73;;;4.47;;
32200;SDS011;18701;45.588;5.288;2024-02-04T04:45:46;5.88;;;3.83;;
32200;SDS011;18701;45.588;5.288;2024-02-04T04:48:12;7.47;;;4.10;;
32200;SDS011;18701;45.588;5.288;2024-02-04T04:50:38;9.55;;;3.83;;
32200;SDS011;18701;45.588;5.288;2024-02-04T04:53:03;6.10;;;3.28;;
32200;SDS011;18701;45.588;5.288;2024-02-04T04:55:29;8.40;;;3.47;;
32200;SDS011;18701;45.588;5.288;2024-02-04T04:57:55;6.65;;;3.00;;
32200;SDS011;18701;45.588;5.288;2024-02-04T05:00:20;6.95;;;3.10;;
32200;SDS011;18701;45.588;5.288;2024-02-04T05:02:46;6.82;;;2.85;;
32200;SDS011;18701;45.588;5.288;2024-02-04T05:05:13;6.38;;;2.80;;
32200;SDS011;18701;45.588;5.288;2024-02-04T05:07:39;6.43;;;3.60;;
32200;SDS011;18701;45.588;5.288;2024-02-04T05:10:05;7.20;;;3.30;;
32200;SDS011;18701;45.588;5.288;2024-02-04T05:12:32;6.95;;;2.30;;
32200;SDS011;18701;45.588;5.288;2024-02-04T05:14:58;5.97;;;2.78;;
32200;SDS011;18701;45.588;5.288;2024-02-04T05:17:25;4.00;;;2.20;;
32200;SDS011;18701;45.588;5.288;2024-02-04T05:19:52;4.88;;;2.30;;
32200;SDS011;18701;45.588;5.288;2024-02-04T05:22:17;5.68;;;3.15;;
32200;SDS011;18701;45.588;5.288;2024-02-04T05:24:43;9.48;;;2.97;;
32200;SDS011;18701;45.588;5.288;2024-02-04T05:27:09;5.03;;;3.17;;
32200;SDS011;18701;45.588;5.288;2024-02-04T05:29:35;5.22;;;2.78;;
32200;SDS011;18701;45.588;5.288;2024-02-04T05:32:01;4.93;;;2.72;;
32200;SDS011;18701;45.588;5.288;2024-02-04T05:34:26;7.07;;;3.03;;
32200;SDS011;18701;45.588;5.288;2024-02-04T05:36:52;3.67;;;2.40;;
32200;SDS011;18701;45.588;5.288;2024-02-04T05:39:18;10.70;;;2.88;;
32200;SDS011;18701;45.588;5.288;2024-02-04T05:41:46;5.65;;;3.10;;
32200;SDS011;18701;45.588;5.288;2024-02-04T05:44:12;7.40;;;2.70;;
32200;SDS011;18701;45.588;5.288;2024-02-04T05:46:38;7.25;;;2.92;;
32200;SDS011;18701;45.588;5.288;2024-02-04T05:49:04;6.85;;;2.67;;
32200;SDS011;18701;45.588;5.288;2024-02-04T05:51:37;5.88;;;2.83;;
32200;SDS011;18701;45.588;5.288;2024-02-04T05:54:04;6.43;;;2.35;;
32200;SDS011;18701;45.588;5.288;2024-02-04T05:56:30;5.68;;;2.35;;
32200;SDS011;18701;45.588;5.288;2024-02-04T05:58:55;3.75;;;2.00;;
32200;SDS011;18701;45.588;5.288;2024-02-04T06:01:21;3.72;;;2.15;;
32200;SDS011;18701;45.588;5.288;2024-02-04T06:03:46;5.57;;;2.85;;
32200;SDS011;18701;45.588;5.288;2024-02-04T06:06:15;5.00;;;2.15;;
32200;SDS011;18701;45.588;5.288;2024-02-04T06:08:43;5.18;;;2.60;;
32200;SDS011;18701;45.588;5.288;2024-02-04T06:11:12;2.60;;;2.03;;
32200;SDS011;18701;45.588;5.288;2024-02-04T06:13:39;4.43;;;2.40;;
32200;SDS011;18701;45.588;5.288;2024-02-04T06:16:05;3.53;;;2.10;;
32200;SDS011;18701;45.588;5.288;2024-02-04T06:18:31;4.50;;;2.38;;
32200;SDS011;18701;45.588;5.288;2024-02-04T06:20:57;8.20;;;2.67;;
32200;SDS011;18701;45.588;5.288;2024-02-04T06:23:22;4.65;;;1.98;;
32200;SDS011;18701;45.588;5.288;2024-02-04T06:25:48;5.32;;;2.03;;
32200;SDS011;18701;45.588;5.288;2024-02-04T06:28:14;8.00;;;2.83;;
32200;SDS011;18701;45.588;5.288;2024-02-04T06:30:39;9.93;;;3.92;;
32200;SDS011;18701;45.588;5.288;2024-02-04T06:33:05;3.90;;;1.38;;
32200;SDS011;18701;45.588;5.288;2024-02-04T06:35:31;9.05;;;2.05;;
32200;SDS011;18701;45.588;5.288;2024-02-04T06:37:57;3.55;;;1.65;;
32200;SDS011;18701;45.588;5.288;2024-02-04T06:40:23;5.63;;;2.25;;
32200;SDS011;18701;45.588;5.288;2024-02-04T06:42:48;3.90;;;1.73;;
32200;SDS011;18701;45.588;5.288;2024-02-04T06:45:14;4.15;;;1.65;;
32200;SDS011;18701;45.588;5.288;2024-02-04T06:47:42;6.03;;;2.13;;
32200;SDS011;18701;45.588;5.288;2024-02-04T06:50:09;4.32;;;1.83;;
32200;SDS011;18701;45.588;5.288;2024-02-04T06:52:42;2.97;;;1.75;;
32200;SDS011;18701;45.588;5.288;2024-02-04T06:55:08;7.10;;;1.98;;
32200;SDS011;18701;45.588;5.288;2024-02-04T06:57:34;11.02;;;2.53;;
32200;SDS011;18701;45.588;5.288;2024-02-04T07:00:00;4.13;;;2.05;;
32200;SDS011;18701;45.588;5.288;2024-02-04T07:02:26;3.60;;;1.95;;
32200;SDS011;18701;45.588;5.288;2024-02-04T07:04:52;5.60;;;2.20;;
32200;SDS011;18701;45.588;5.288;2024-02-04T07:07:18;5.82;;;2.58;;
32200;SDS011;18701;45.588;5.288;2024-02-04T07:09:44;5.05;;;2.28;;
32200;SDS011;18701;45.588;5.288;2024-02-04T07:12:09;3.13;;;1.75;;
32200;SDS011;18701;45.588;5.288;2024-02-04T07:14:35;4.15;;;1.88;;
32200;SDS011;18701;45.588;5.288;2024-02-04T07:17:00;4.90;;;1.65;;
32200;SDS011;18701;45.588;5.288;2024-02-04T07:19:26;6.97;;;2.20;;
32200;SDS011;18701;45.588;5.288;2024-02-04T07:21:52;4.82;;;2.30;;
32200;SDS011;18701;45.588;5.288;2024-02-04T07:24:17;3.15;;;2.10;;
32200;SDS011;18701;45.588;5.288;2024-02-04T07:26:43;7.30;;;2.60;;
32200;SDS011;18701;45.588;5.288;2024-02-04T07:29:10;5.03;;;2.35;;
32200;SDS011;18701;45.588;5.288;2024-02-04T07:31:37;7.40;;;3.00;;
32200;SDS011;18701;45.588;5.288;2024-02-04T07:34:03;7.90;;;2.88;;
32200;SDS011;18701;45.588;5.288;2024-02-04T07:36:29;5.65;;;2.92;;
32200;SDS011;18701;45.588;5.288;2024-02-04T07:38:55;7.72;;;3.00;;
32200;SDS011;18701;45.588;5.288;2024-02-04T07:41:21;8.75;;;3.90;;
32200;SDS011;18701;45.588;5.288;2024-02-04T07:43:46;6.88;;;3.85;;
32200;SDS011;18701;45.588;5.288;2024-02-04T07:46:13;5.47;;;2.85;;
32200;SDS011;18701;45.588;5.288;2024-02-04T07:48:39;10.55;;;3.92;;
32200;SDS011;18701;45.588;5.288;2024-02-04T07:51:04;6.97;;;3.15;;
32200;SDS011;18701;45.588;5.288;2024-02-04T07:53:31;8.07;;;3.08;;
32200;SDS011;18701;45.588;5.288;2024-02-04T07:55:57;4.72;;;2.80;;
32200;SDS011;18701;45.588;5.288;2024-02-04T07:58:22;7.97;;;3.20;;
32200;SDS011;18701;45.588;5.288;2024-02-04T08:00:48;5.72;;;3.20;;
32200;SDS011;18701;45.588;5.288;2024-02-04T08:03:13;8.40;;;2.70;;
32200;SDS011;18701;45.588;5.288;2024-02-04T08:05:39;9.52;;;3.50;;
32200;SDS011;18701;45.588;5.288;2024-02-04T08:08:05;8.00;;;3.20;;
32200;SDS011;18701;45.588;5.288;2024-02-04T08:10:30;5.97;;;3.08;;
32200;SDS011;18701;45.588;5.288;2024-02-04T08:12:56;5.25;;;2.97;;
32200;SDS011;18701;45.588;5.288;2024-02-04T08:15:22;7.10;;;2.50;;
32200;SDS011;18701;45.588;5.288;2024-02-04T08:17:48;7.82;;;3.03;;
32200;SDS011;18701;45.588;5.288;2024-02-04T08:20:13;10.20;;;2.80;;
32200;SDS011;18701;45.588;5.288;2024-02-04T08:22:39;5.68;;;2.83;;
32200;SDS011;18701;45.588;5.288;2024-02-04T08:25:05;4.65;;;2.65;;
32200;SDS011;18701;45.588;5.288;2024-02-04T08:27:31;5.20;;;2.33;;
32200;SDS011;18701;45.588;5.288;2024-02-04T08:29:56;5.75;;;2.42;;
32200;SDS011;18701;45.588;5.288;2024-02-04T08:32:22;5.90;;;2.88;;
32200;SDS011;18701;45.588;5.288;2024-02-04T08:34:48;9.75;;;2.65;;
32200;SDS011;18701;45.588;5.288;2024-02-04T08:37:16;6.32;;;2.50;;
32200;SDS011;18701;45.588;5.288;2024-02-04T08:39:42;10.40;;;2.47;;
32200;SDS011;18701;45.588;5.288;2024-02-04T08:42:07;6.05;;;2.67;;
32200;SDS011;18701;45.588;5.288;2024-02-04T08:44:33;10.52;;;3.33;;
32200;SDS011;18701;45.588;5.288;2024-02-04T08:46:58;8.90;;;3.30;;
32200;SDS011;18701;45.588;5.288;2024-02-04T08:49:24;6.72;;;3.05;;
32200;SDS011;18701;45.588;5.288;2024-02-04T08:51:50;7.53;;;2.80;;
32200;SDS011;18701;45.588;5.288;2024-02-04T08:54:15;12.80;;;2.58;;
32200;SDS011;18701;45.588;5.288;2024-02-04T08:56:42;3.33;;;1.70;;
32200;SDS011;18701;45.588;5.288;2024-02-04T08:59:08;7.20;;;2.40;;
32200;SDS011;18701;45.588;5.288;2024-02-04T09:01:33;5.35;;;1.65;;
32200;SDS011;18701;45.588;5.288;2024-02-04T09:03:59;9.00;;;2.17;;
32200;SDS011;18701;45.588;5.288;2024-02-04T09:06:25;8.27;;;2.65;;
32200;SDS011;18701;45.588;5.288;2024-02-04T09:08:50;10.23;;;2.63;;
32200;SDS011;18701;45.588;5.288;2024-02-04T09:11:16;5.63;;;2.92;;
32200;SDS011;18701;45.588;5.288;2024-02-04T09:13:46;5.35;;;2.63;;
32200;SDS011;18701;45.588;5.288;2024-02-04T09:16:12;10.63;;;4.38;;
32200;SDS011;18701;45.588;5.288;2024-02-04T09:18:38;9.75;;;3.22;;
32200;SDS011;18701;45.588;5.288;2024-02-04T09:21:04;5.78;;;2.75;;
32200;SDS011;18701;45.588;5.288;2024-02-04T09:23:29;8.80;;;3.03;;
32200;SDS011;18701;45.588;5.288;2024-02-04T09:25:55;11.77;;;2.65;;
32200;SDS011;18701;45.588;5.288;2024-02-04T09:28:21;9.52;;;2.78;;
32200;SDS011;18701;45.588;5.288;2024-02-04T09:30:46;9.55;;;3.30;;
32200;SDS011;18701;45.588;5.288;2024-02-04T09:33:13;7.63;;;3.13;;
32200;SDS011;18701;45.588;5.288;2024-02-04T09:35:39;8.82;;;3.03;;
32200;SDS011;18701;45.588;5.288;2024-02-04T09:38:05;14.32;;;2.60;;
32200;SDS011;18701;45.588;5.288;2024-02-04T09:40:31;6.43;;;2.35;;
32200;SDS011;18701;45.588;5.288;2024-02-04T09:42:57;6.50;;;2.20;;
32200;SDS011;18701;45.588;5.288;2024-02-04T09:45:24;3.78;;;1.92;;
32200;SDS011;18701;45.588;5.288;2024-02-04T09:47:51;7.95;;;1.65;;
32200;SDS011;18701;45.588;5.288;2024-02-04T09:50:22;10.95;;;2.20;;
32200;SDS011;18701;45.588;5.288;2024-02-04T09:52:51;5.78;;;1.75;;
32200;SDS011;18701;45.588;5.288;2024-02-04T09:55:23;9.30;;;1.90;;
32200;SDS011;18701;45.588;5.288;2024-02-04T09:57:50;8.35;;;2.13;;
32200;SDS011;18701;45.588;5.288;2024-02-04T10:00:17;7.70;;;1.90;;
32200;SDS011;18701;45.588;5.288;2024-02-04T10:02:48;5.25;;;2.40;;
32200;SDS011;18701;45.588;5.288;2024-02-04T10:05:14;5.45;;;1.98;;
32200;SDS011;18701;45.588;5.288;2024-02-04T10:07:40;6.80;;;2.25;;
32200;SDS011;18701;45.588;5.288;2024-02-04T10:10:09;7.97;;;3.17;;
32200;SDS011;18701;45.588;5.288;2024-02-04T10:12:36;6.10;;;2.83;;
32200;SDS011;18701;45.588;5.288;2024-02-04T10:15:03;10.73;;;2.95;;
32200;SDS011;18701;45.588;5.288;2024-02-04T10:17:30;6.60;;;3.10;;
32200;SDS011;18701;45.588;5.288;2024-02-04T10:19:56;8.00;;;2.83;;
32200;SDS011;18701;45.588;5.288;2024-02-04T10:22:22;14.80;;;4.05;;
32200;SDS011;18701;45.588;5.288;2024-02-04T10:24:51;10.40;;;4.30;;
32200;SDS011;18701;45.588;5.288;2024-02-04T10:27:17;10.60;;;4.40;;
32200;SDS011;18701;45.588;5.288;2024-02-04T10:29:43;13.80;;;5.00;;
32200;SDS011;18701;45.588;5.288;2024-02-04T10:32:09;9.80;;;5.28;;
32200;SDS011;18701;45.588;5.288;2024-02-04T10:34:37;10.88;;;5.28;;
32200;SDS011;18701;45.588;5.288;2024-02-04T10:37:03;13.73;;;6.22;;
32200;SDS011;18701;45.588;5.288;2024-02-04T10:39:29;17.42;;;7.13;;
32200;SDS011;18701;45.588;5.288;2024-02-04T10:41:55;18.27;;;6.93;;
32200;SDS011;18701;45.588;5.288;2024-02-04T10:44:26;16.60;;;7.90;;
32200;SDS011;18701;45.588;5.288;2024-02-04T10:46:55;23.60;;;9.25;;
32200;SDS011;18701;45.588;5.288;2024-02-04T10:49:23;22.48;;;10.27;;
32200;SDS011;18701;45.588;5.288;2024-02-04T10:51:52;24.20;;;9.15;;
32200;SDS011;18701;45.588;5.288;2024-02-04T10:54:21;23.27;;;8.80;;
32200;SDS011;18701;45.588;5.288;2024-02-04T10:56:55;22.35;;;9.65;;
32200;SDS011;18701;45.588;5.288;2024-02-04T10:59:23;22.85;;;9.57;;
32200;SDS011;18701;45.588;5.288;2024-02-04T11:01:50;25.08;;;9.82;;
32200;SDS011;18701;45.588;5.288;2024-02-04T11:04:16;22.10;;;8.95;;
32200;SDS011;18701;45.588;5.288;2024-02-04T11:06:43;23.35;;;9.45;;
32200;SDS011;18701;45.588;5.288;2024-02-04T11:09:09;27.42;;;10.10;;
32200;SDS011;18701;45.588;5.288;2024-02-04T11:11:37;22.48;;;8.98;;
32200;SDS011;18701;45.588;5.288;2024-02-04T11:14:04;21.60;;;10.23;;
32200;SDS011;18701;45.588;5.288;2024-02-04T11:22:51;17.33;;;7.97;;
32200;SDS011;18701;45.588;5.288;2024-02-04T11:27:52;19.85;;;7.03;;
32200;SDS011;18701;45.588;5.288;2024-02-04T11:30:18;15.80;;;7.70;;
32200;SDS011;18701;45.588;5.288;2024-02-04T11:32:44;16.10;;;7.72;;
32200;SDS011;18701;45.588;5.288;2024-02-04T11:35:11;16.67;;;8.18;;
32200;SDS011;18701;45.588;5.288;2024-02-04T11:37:37;17.65;;;6.65;;
32200;SDS011;18701;45.588;5.288;2024-02-04T11:40:04;12.30;;;6.82;;
32200;SDS011;18701;45.588;5.288;2024-02-04T11:42:33;13.52;;;6.65;;
32200;SDS011;18701;45.588;5.288;2024-02-04T11:45:09;11.95;;;5.18;;
32200;SDS011;18701;45.588;5.288;2024-02-04T11:47:37;16.63;;;5.88;;
32200;SDS011;18701;45.588;5.288;2024-02-04T11:50:04;14.10;;;5.15;;
32200;SDS011;18701;45.588;5.288;2024-02-04T11:52:30;11.27;;;4.43;;
32200;SDS011;18701;45.588;5.288;2024-02-04T11:54:56;10.55;;;3.40;;
32200;SDS011;18701;45.588;5.288;2024-02-04T11:57:22;7.75;;;3.30;;
32200;SDS011;18701;45.588;5.288;2024-02-04T11:59:48;13.15;;;3.45;;
32200;SDS011;18701;45.588;5.288;2024-02-04T12:02:16;9.00;;;2.83;;
32200;SDS011;18701;45.588;5.288;2024-02-04T12:04:45;11.15;;;3.13;;
32200;SDS011;18701;45.588;5.288;2024-02-04T12:07:11;7.65;;;3.42;;
32200;SDS011;18701;45.588;5.288;2024-02-04T12:09:38;7.63;;;3.30;;
32200;SDS011;18701;45.588;5.288;2024-02-04T12:12:05;9.07;;;2.55;;
32200;SDS011;18701;45.588;5.288;2024-02-04T12:14:31;8.35;;;2.42;;
32200;SDS011;18701;45.588;5.288;2024-02-04T12:16:59;10.90;;;2.42;;
32200;SDS011;18701;45.588;5.288;2024-02-04T12:19:35;9.10;;;2.20;;
32200;SDS011;18701;45.588;5.288;2024-02-04T12:22:01;8.13;;;2.28;;
32200;SDS011;18701;45.588;5.288;2024-02-04T12:24:30;5.93;;;2.30;;
32200;SDS011;18701;45.588;5.288;2024-02-04T12:26:56;7.85;;;2.40;;
32200;SDS011;18701;45.588;5.288;2024-02-04T12:29:22;15.13;;;2.65;;
32200;SDS011;18701;45.588;5.288;2024-02-04T12:31:48;7.55;;;2.15;;
32200;SDS011;18701;45.588;5.288;2024-02-04T12:34:22;5.95;;;2.58;;
32200;SDS011;18701;45.588;5.288;2024-02-04T12:36:56;7.03;;;2.20;;
32200;SDS011;18701;45.588;5.288;2024-02-04T12:39:24;8.35;;;2.10;;
32200;SDS011;18701;45.588;5.288;2024-02-04T12:41:52;8.63;;;2.00;;
32200;SDS011;18701;45.588;5.288;2024-02-04T12:44:18;6.28;;;2.20;;
32200;SDS011;18701;45.588;5.288;2024-02-04T12:46:44;6.75;;;2.00;;
32200;SDS011;18701;45.588;5.288;2024-02-04T12:49:10;7.90;;;2.38;;
32200;SDS011;18701;45.588;5.288;2024-02-04T12:51:42;8.82;;;2.17;;
32200;SDS011;18701;45.588;5.288;2024-02-04T12:54:09;8.68;;;2.08;;
32200;SDS011;18701;45.588;5.288;2024-02-04T12:56:51;4.47;;;1.38;;
32200;SDS011;18701;45.588;5.288;2024-02-04T13:02:07;7.45;;;2.25;;
32200;SDS011;18701;45.588;5.288;2024-02-04T13:04:33;9.02;;;2.13;;
32200;SDS011;18701;45.588;5.288;2024-02-04T13:07:07;6.78;;;2.38;;
32200;SDS011;18701;45.588;5.288;2024-02-04T13:09:38;9.25;;;2.45;;
32200;SDS011;18701;45.588;5.288;2024-02-04T13:12:07;3.22;;;2.38;;
32200;SDS011;18701;45.588;5.288;2024-02-04T13:14:34;7.35;;;2.45;;
32200;SDS011;18701;45.588;5.288;2024-02-04T13:16:59;5.35;;;2.72;;
32200;SDS011;18701;45.588;5.288;2024-02-04T13:19:31;9.40;;;2.25;;
32200;SDS011;18701;45.588;5.288;2024-02-04T13:22:04;5.72;;;2.33;;
32200;SDS011;18701;45.588;5.288;2024-02-04T13:24:39;4.68;;;2.22;;
32200;SDS011;18701;45.588;5.288;2024-02-04T13:27:04;6.80;;;2.00;;
32200;SDS011;18701;45.588;5.288;2024-02-04T13:29:36;3.25;;;1.90;;
32200;SDS011;18701;45.588;5.288;2024-02-04T13:32:02;7.10;;;2.50;;
32200;SDS011;18701;45.588;5.288;2024-02-04T13:34:28;6.72;;;2.50;;
32200;SDS011;18701;45.588;5.288;2024-02-04T13:36:53;4.78;;;2.05;;
32200;SDS011;18701;45.588;5.288;2024-02-04T13:39:19;9.35;;;3.13;;
32200;SDS011;18701;45.588;5.288;2024-02-04T13:41:45;9.15;;;2.67;;
32200;SDS011;18701;45.588;5.288;2024-02-04T13:44:10;5.07;;;2.78;;
32200;SDS011;18701;45.588;5.288;2024-02-04T13:46:36;7.28;;;2.42;;
32200;SDS011;18701;45.588;5.288;2024-02-04T13:49:04;4.10;;;2.13;;
32200;SDS011;18701;45.588;5.288;2024-02-04T13:51:30;9.30;;;2.08;;
32200;SDS011;18701;45.588;5.288;2024-02-04T13:53:55;7.50;;;1.65;;
32200;SDS011;18701;45.588;5.288;2024-02-04T13:56:21;3.58;;;1.85;;
32200;SDS011;18701;45.588;5.288;2024-02-04T13:58:46;5.28;;;1.80;;
32200;SDS011;18701;45.588;5.288;2024-02-04T14:01:12;5.88;;;2.30;;
32200;SDS011;18701;45.588;5.288;2024-02-04T14:03:38;7.57;;;2.40;;
32200;SDS011;18701;45.588;5.288;2024-02-04T14:06:04;8.18;;;2.13;;
32200;SDS011;18701;45.588;5.288;2024-02-04T14:08:30;7.63;;;2.25;;
32200;SDS011;18701;45.588;5.288;2024-02-04T14:10:58;10.25;;;2.50;;
32200;SDS011;18701;45.588;5.288;2024-02-04T14:13:23;8.48;;;2.30;;
32200;SDS011;18701;45.588;5.288;2024-02-04T14:15:49;5.68;;;2.63;;
32200;SDS011;18701;45.588;5.288;2024-02-04T14:18:14;11.15;;;2.72;;
32200;SDS011;18701;45.588;5.288;2024-02-04T14:20:42;8.48;;;2.75;;
32200;SDS011;18701;45.588;5.288;2024-02-04T14:23:08;7.05;;;2.65;;
32200;SDS011;18701;45.588;5.288;2024-02-04T14:25:34;10.30;;;2.50;;
32200;SDS011;18701;45.588;5.288;2024-02-04T14:27:59;6.07;;;1.52;;
32200;SDS011;18701;45.588;5.288;2024-02-04T14:30:25;10.10;;;2.42;;
32200;SDS011;18701;45.588;5.288;2024-02-04T14:32:50;6.72;;;2.60;;
32200;SDS011;18701;45.588;5.288;2024-02-04T14:35:16;7.10;;;1.95;;
32200;SDS011;18701;45.588;5.288;2024-02-04T14:37:42;4.78;;;2.20;;
32200;SDS011;18701;45.588;5.288;2024-02-04T14:40:08;5.50;;;2.50;;
32200;SDS011;18701;45.588;5.288;2024-02-04T14:42:34;9.30;;;2.80;;
32200;SDS011;18701;45.588;5.288;2024-02-04T14:44:59;7.15;;;2.55;;
32200;SDS011;18701;45.588;5.288;2024-02-04T14:47:25;7.78;;;3.20;;
32200;SDS011;18701;45.588;5.288;2024-02-04T14:49:52;4.65;;;2.15;;
32200;SDS011;18701;45.588;5.288;2024-02-04T14:52:18;5.85;;;2.50;;